createdAt,value
2016-11-18T00:00:13.220Z,83.12
2016-11-18T00:01:29.999Z,82.45
2016-11-18T00:02:46.342Z,82.92
2016-11-18T00:04:03.029Z,82.35
2016-11-18T00:05:19.356Z,82.78
2016-11-18T00:06:36.056Z,82.54
2016-11-18T00:07:53.036Z,82.54
2016-11-18T00:09:09.945Z,81.68
2016-11-18T00:10:27.180Z,81.78
2016-11-18T00:11:42.969Z,82.49
2016-11-18T00:12:58.070Z,82.01
2016-11-18T00:14:14.099Z,82.64
2016-11-18T00:15:29.201Z,82.59
2016-11-18T00:16:45.396Z,83.4
2016-11-18T00:18:02.370Z,83.31
2016-11-18T00:19:17.643Z,83.69
2016-11-18T00:20:33.946Z,83.69
2016-11-18T00:21:47.587Z,84.36
2016-11-18T00:23:01.854Z,83.88
2016-11-18T00:24:18.177Z,84.83
2016-11-18T00:25:32.444Z,85.02
2016-11-18T00:26:49.124Z,85.02
2016-11-18T00:28:05.417Z,85.12
2016-11-18T00:29:22.636Z,83.97
2016-11-18T00:30:38.913Z,84.74
2016-11-18T00:31:54.254Z,84.07
2016-11-18T00:33:09.117Z,84.64
2016-11-18T00:34:23.875Z,83.88
2016-11-18T00:35:39.635Z,83.97
2016-11-18T00:36:51.550Z,84.26
2016-11-18T00:38:08.673Z,83.78
2016-11-18T00:39:21.770Z,83.59
2016-11-18T00:40:38.091Z,83.88
2016-11-18T00:41:51.753Z,83.31
2016-11-18T00:43:06.819Z,83.12
2016-11-18T00:44:21.540Z,82.73
2016-11-18T00:45:34.703Z,82.73
2016-11-18T00:46:50.832Z,82.45
2016-11-18T00:48:07.161Z,82.54
2016-11-18T00:49:22.016Z,82.35
2016-11-18T00:50:38.004Z,82.73
2016-11-18T00:51:51.740Z,81.88
2016-11-18T00:53:07.618Z,82.45
2016-11-18T00:54:23.502Z,82.54
2016-11-18T00:55:37.079Z,81.88
2016-11-18T00:56:52.144Z,79.3
2016-11-18T00:58:07.063Z,78.92
2016-11-18T00:59:21.812Z,79.49
2016-11-18T01:00:36.515Z,80.6
2016-11-18T01:01:51.263Z,81.36
2016-11-18T01:03:07.144Z,82.21
2016-11-18T01:04:21.606Z,83.32
2016-11-18T01:05:36.762Z,84.17
2016-11-18T01:06:52.844Z,85.41
2016-11-18T01:08:07.859Z,85.94
2016-11-18T01:09:22.812Z,86.22
2016-11-18T01:10:39.678Z,86.61
2016-11-18T01:11:55.960Z,87.75
2016-11-18T01:13:10.638Z,88.04
2016-11-18T01:14:26.489Z,88.79
2016-11-18T01:15:43.049Z,89.47
2016-11-18T01:16:57.856Z,89.14
2016-11-18T01:18:13.025Z,89.99
2016-11-18T01:19:27.527Z,90.66
2016-11-18T01:20:43.414Z,90.75
2016-11-18T01:21:58.327Z,89.8
2016-11-18T01:23:13.238Z,89.8
2016-11-18T01:24:29.526Z,89.51
2016-11-18T01:25:44.924Z,89.7
2016-11-18T01:27:01.375Z,89.99
2016-11-18T01:28:14.772Z,89.89
2016-11-18T01:29:30.505Z,89.8
2016-11-18T01:30:45.564Z,89.89
2016-11-18T01:32:01.075Z,90.56
2016-11-18T01:33:16.048Z,90.47
2016-11-18T01:34:32.126Z,90.37
2016-11-18T01:35:49.119Z,90.84
2016-11-18T01:37:04.416Z,91.13
2016-11-18T01:38:20.337Z,90.84
2016-11-18T01:39:36.482Z,91.13
2016-11-18T01:40:49.625Z,90.66
2016-11-18T01:42:03.974Z,90.94
2016-11-18T01:43:19.692Z,91.03
2016-11-18T01:44:36.839Z,91.13
2016-11-18T01:45:53.780Z,91.99
2016-11-18T01:47:09.897Z,91.7
2016-11-18T01:48:23.200Z,91.61
2016-11-18T01:49:38.247Z,91.89
2016-11-18T01:50:51.721Z,91.89
2016-11-18T01:52:06.028Z,90.94
2016-11-18T01:53:22.817Z,91.51
2016-11-18T01:54:38.558Z,91.7
2016-11-18T01:55:55.246Z,91.22
2016-11-18T01:57:11.119Z,90.47
2016-11-18T01:58:26.981Z,91.03
2016-11-18T01:59:40.654Z,91.03
2016-11-18T02:00:56.129Z,91.61
2016-11-18T02:02:10.811Z,91.8
2016-11-18T02:03:25.170Z,92.08
2016-11-18T02:04:41.153Z,91.61
2016-11-18T02:05:55.665Z,91.51
2016-11-18T02:07:12.004Z,91.89
2016-11-18T02:08:28.574Z,92.18
2016-11-18T02:09:43.235Z,91.89
2016-11-18T02:10:58.525Z,92.08
2016-11-18T02:12:14.413Z,91.8
2016-11-18T02:13:28.426Z,91.99
2016-11-18T02:14:43.525Z,91.8
2016-11-18T02:15:59.439Z,91.99
2016-11-18T02:17:13.448Z,91.61
2016-11-18T02:18:29.376Z,92.18
2016-11-18T02:19:46.173Z,92.36
2016-11-18T02:21:01.094Z,92.56
2016-11-18T02:22:13.810Z,92.18
2016-11-18T02:23:26.640Z,92.36
2016-11-18T02:24:41.099Z,91.99
2016-11-18T02:25:55.878Z,92.65
2016-11-18T02:27:12.323Z,91.89
2016-11-18T02:28:27.059Z,92.36
2016-11-18T02:29:43.519Z,92.36
2016-11-18T02:30:59.374Z,92.94
2016-11-18T02:32:13.917Z,92.56
2016-11-18T02:33:28.140Z,93.23
2016-11-18T02:34:44.269Z,93.13
2016-11-18T02:36:00.450Z,93.23
2016-11-18T02:37:15.981Z,93.08
2016-11-18T02:38:30.918Z,92.8
2016-11-18T02:39:44.120Z,92.61
2016-11-18T02:41:00.159Z,92.61
2016-11-18T02:42:16.375Z,93.08
2016-11-18T02:43:31.340Z,92.89
2016-11-18T02:44:46.973Z,92.75
2016-11-18T02:46:02.606Z,92.13
2016-11-18T02:47:19.381Z,92.36
2016-11-18T02:48:34.560Z,92.27
2016-11-18T02:49:50.909Z,92.61
2016-11-18T02:51:07.597Z,92.61
2016-11-18T02:52:23.086Z,92.13
2016-11-18T02:53:38.755Z,92.32
2016-11-18T02:54:54.925Z,92.51
2016-11-18T02:56:06.754Z,92.61
2016-11-18T02:57:21.849Z,92.89
2016-11-18T02:58:36.552Z,92.51
2016-11-18T02:59:50.601Z,92.32
2016-11-18T03:01:03.594Z,92.61
2016-11-18T03:02:19.643Z,93.18
2016-11-18T03:03:34.709Z,93.75
2016-11-18T03:04:47.920Z,93.75
2016-11-18T03:06:03.019Z,93.55
2016-11-18T03:07:17.286Z,93.75
2016-11-18T03:08:33.170Z,93.65
2016-11-18T03:09:49.476Z,94.22
2016-11-18T03:11:04.779Z,94.51
2016-11-18T03:12:20.452Z,94.51
2016-11-18T03:13:35.237Z,94.13
2016-11-18T03:14:50.116Z,93.84
2016-11-18T03:16:05.611Z,92.99
2016-11-18T03:17:22.430Z,93.65
2016-11-18T03:18:37.745Z,93.46
2016-11-18T03:19:53.464Z,93.65
2016-11-18T03:21:09.346Z,94.03
2016-11-18T03:22:24.590Z,93.65
2016-11-18T03:23:38.909Z,94.13
2016-11-18T03:24:55.519Z,93.37
2016-11-18T03:26:10.747Z,93.55
2016-11-18T03:27:23.956Z,93.65
2016-11-18T03:28:38.516Z,93.65
2016-11-18T03:29:55.086Z,93.46
2016-11-18T03:31:09.812Z,93.27
2016-11-18T03:32:25.984Z,93.18
2016-11-18T03:33:42.700Z,93.75
2016-11-18T03:34:58.736Z,93.37
2016-11-18T03:36:14.494Z,92.61
2016-11-18T03:37:30.362Z,92.03
2016-11-18T03:38:45.840Z,91.85
2016-11-18T03:40:01.623Z,91.75
2016-11-18T03:41:16.807Z,91.66
2016-11-18T03:42:33.927Z,91.66
2016-11-18T03:43:47.215Z,92.61
2016-11-18T03:45:00.519Z,92.7
2016-11-18T03:46:16.563Z,92.41
2016-11-18T03:47:32.964Z,92.61
2016-11-18T03:48:48.995Z,92.41
2016-11-18T03:50:04.870Z,92.7
2016-11-18T03:51:18.110Z,92.8
2016-11-18T03:52:32.749Z,93.46
2016-11-18T03:53:48.446Z,93.55
2016-11-18T03:54:59.999Z,93.65
2016-11-18T03:56:15.863Z,93.27
2016-11-18T03:57:29.871Z,93.75
2016-11-18T03:58:46.111Z,93.99
2016-11-18T04:00:02.434Z,94.13
2016-11-18T04:01:18.447Z,94.18
2016-11-18T04:02:30.467Z,94.18
2016-11-18T04:03:44.914Z,94.13
2016-11-18T04:04:58.117Z,94.27
2016-11-18T04:06:13.144Z,94.42
2016-11-18T04:07:27.826Z,93.99
2016-11-18T04:08:44.134Z,94.08
2016-11-18T04:10:00.598Z,93.94
2016-11-18T04:11:14.126Z,93.99
2016-11-18T04:12:29.539Z,94.32
2016-11-18T04:13:44.942Z,94.03
2016-11-18T04:15:00.465Z,94.22
2016-11-18T04:16:14.880Z,94.03
2016-11-18T04:17:29.549Z,94.22
2016-11-18T04:18:45.241Z,94.08
2016-11-18T04:20:01.955Z,93.6
2016-11-18T04:21:18.245Z,93.6
2016-11-18T04:22:35.195Z,94.03
2016-11-18T04:23:51.739Z,93.75
2016-11-18T04:25:08.170Z,93.94
2016-11-18T04:26:21.451Z,94.08
2016-11-18T04:27:35.140Z,93.7
2016-11-18T04:28:51.107Z,92.85
2016-11-18T04:30:05.858Z,92.56
2016-11-18T04:31:21.983Z,92.56
2016-11-18T04:32:35.677Z,91.42
2016-11-18T04:33:50.159Z,90.94
2016-11-18T04:35:05.147Z,90.85
2016-11-18T04:36:19.421Z,90.37
2016-11-18T04:37:33.036Z,90.99
2016-11-18T04:38:49.873Z,90.33
2016-11-18T04:40:04.440Z,90.52
2016-11-18T04:41:19.301Z,90.8
2016-11-18T04:42:36.434Z,90.42
2016-11-18T04:43:51.325Z,90.9
2016-11-18T04:45:06.327Z,90.99
2016-11-18T04:46:21.021Z,91.09
2016-11-18T04:47:37.268Z,91.47
2016-11-18T04:48:52.179Z,91.19
2016-11-18T04:50:08.072Z,91.66
2016-11-18T04:51:22.737Z,90.33
2016-11-18T04:52:37.084Z,90.9
2016-11-18T04:53:53.350Z,91.09
2016-11-18T04:55:06.546Z,91.09
2016-11-18T04:56:21.423Z,91.09
2016-11-18T04:57:36.488Z,91.47
2016-11-18T04:58:51.525Z,90.52
2016-11-18T05:00:06.872Z,90.8
2016-11-18T05:01:18.313Z,90.47
2016-11-18T05:02:32.829Z,89.72
2016-11-18T05:03:47.098Z,90
2016-11-18T05:05:00.977Z,89.33
2016-11-18T05:06:16.039Z,89.9
2016-11-18T05:07:31.966Z,89.53
2016-11-18T05:08:47.270Z,89.43
2016-11-18T05:10:03.984Z,89.72
2016-11-18T05:11:18.301Z,89.72
2016-11-18T05:12:34.371Z,89.53
2016-11-18T05:13:50.410Z,90.47
2016-11-18T05:15:06.337Z,90.81
2016-11-18T05:16:19.975Z,91
2016-11-18T05:17:34.729Z,91.47
2016-11-18T05:18:48.563Z,91.56
2016-11-18T05:20:04.940Z,91.85
2016-11-18T05:21:21.716Z,91.28
2016-11-18T05:22:37.926Z,91.75
2016-11-18T05:23:53.003Z,91.38
2016-11-18T05:25:09.572Z,91.75
2016-11-18T05:26:24.895Z,92.14
2016-11-18T05:27:40.448Z,91.94
2016-11-18T05:28:57.482Z,92.14
2016-11-18T05:30:12.769Z,92.23
2016-11-18T05:31:29.102Z,92.14
2016-11-18T05:32:43.532Z,92.9
2016-11-18T05:33:58.598Z,92.33
2016-11-18T05:35:13.447Z,92.42
2016-11-18T05:36:29.320Z,92.33
2016-11-18T05:37:42.877Z,92.42
2016-11-18T05:38:58.089Z,92.42
2016-11-18T05:40:14.611Z,92.99
2016-11-18T05:41:31.095Z,92.99
2016-11-18T05:42:46.745Z,92.71
2016-11-18T05:44:02.771Z,92.33
2016-11-18T05:45:18.480Z,91.66
2016-11-18T05:46:32.757Z,91.66
2016-11-18T05:47:49.248Z,92.52
2016-11-18T05:49:04.867Z,92.23
2016-11-18T05:50:20.878Z,92.04
2016-11-18T05:51:35.055Z,91.47
2016-11-18T05:52:50.467Z,91.47
2016-11-18T05:54:05.991Z,91.56
2016-11-18T05:55:23.163Z,91.75
2016-11-18T05:56:39.727Z,91.56
2016-11-18T05:57:56.162Z,91.75
2016-11-18T05:59:11.283Z,91.47
2016-11-18T06:00:26.361Z,91.38
2016-11-18T06:01:39.718Z,91.75
2016-11-18T06:02:54.573Z,91.38
2016-11-18T06:04:09.627Z,91.94
2016-11-18T06:05:26.054Z,92.33
2016-11-18T06:06:42.390Z,92.42
2016-11-18T06:07:57.734Z,92.52
2016-11-18T06:09:12.200Z,92.33
2016-11-18T06:10:28.593Z,92.23
2016-11-18T06:11:43.319Z,92.04
2016-11-18T06:12:59.773Z,92.33
2016-11-18T06:14:15.921Z,92.33
2016-11-18T06:15:32.490Z,92.52
2016-11-18T06:16:48.249Z,92.42
2016-11-18T06:18:03.315Z,92.42
2016-11-18T06:19:19.051Z,92.52
2016-11-18T06:20:35.422Z,92.99
2016-11-18T06:21:51.429Z,92.42
2016-11-18T06:23:06.503Z,92.71
2016-11-18T06:24:22.685Z,92.52
2016-11-18T06:25:38.749Z,92.52
2016-11-18T06:26:52.240Z,92.33
2016-11-18T06:28:08.959Z,92.33
2016-11-18T06:29:23.888Z,92.42
2016-11-18T06:30:40.580Z,92.71
2016-11-18T06:31:55.088Z,92.9
2016-11-18T06:33:11.215Z,92.8
2016-11-18T06:34:25.526Z,92.71
2016-11-18T06:35:41.563Z,92.8
2016-11-18T06:36:54.922Z,92.99
2016-11-18T06:38:11.562Z,92.61
2016-11-18T06:39:26.793Z,92.99
2016-11-18T06:40:43.636Z,92.42
2016-11-18T06:41:59.261Z,92.52
2016-11-18T06:43:14.102Z,92.52
2016-11-18T06:44:29.502Z,92.99
2016-11-18T06:45:44.426Z,92.99
2016-11-18T06:46:59.499Z,93.08
2016-11-18T06:48:16.253Z,92.8
2016-11-18T06:49:32.812Z,92.8
2016-11-18T06:50:49.183Z,92.8
2016-11-18T06:52:02.560Z,92.99
2016-11-18T06:53:19.381Z,93.08
2016-11-18T06:54:34.072Z,92.99
2016-11-18T06:55:49.156Z,93.18
2016-11-18T06:57:02.708Z,93.18
2016-11-18T06:58:18.480Z,93.08
2016-11-18T06:59:33.944Z,93.08
2016-11-18T07:00:49.968Z,93.27
2016-11-18T07:02:06.917Z,92.9
2016-11-18T07:03:23.480Z,92.99
2016-11-18T07:04:38.305Z,93.56
2016-11-18T07:05:53.854Z,93.37
2016-11-18T07:07:10.180Z,93.65
2016-11-18T07:08:26.895Z,93.46
2016-11-18T07:09:43.661Z,93.65
2016-11-18T07:10:56.899Z,93.37
2016-11-18T07:12:13.016Z,93.37
2016-11-18T07:13:27.680Z,93.75
2016-11-18T07:14:42.321Z,93.32
2016-11-18T07:15:57.383Z,93.89
2016-11-18T07:17:14.220Z,93.8
2016-11-18T07:18:30.921Z,94.27
2016-11-18T07:19:46.022Z,93.99
2016-11-18T07:21:00.753Z,94.37
2016-11-18T07:22:17.278Z,94.65
2016-11-18T07:23:33.589Z,94.27
2016-11-18T07:24:49.784Z,94.46
2016-11-18T07:26:06.224Z,94.65
2016-11-18T07:27:22.927Z,94.46
2016-11-18T07:28:39.446Z,94.56
2016-11-18T07:29:56.012Z,95.03
2016-11-18T07:31:11.189Z,94.74
2016-11-18T07:32:27.898Z,95.03
2016-11-18T07:33:44.161Z,95.03
2016-11-18T07:34:58.358Z,95.41
2016-11-18T07:36:14.657Z,95.41
2016-11-18T07:37:30.212Z,95.6
2016-11-18T07:38:46.162Z,95.6
2016-11-18T07:40:01.895Z,95.41
2016-11-18T07:41:16.717Z,95.12
2016-11-18T07:42:31.426Z,94.93
2016-11-18T07:43:47.741Z,95.27
2016-11-18T07:45:03.251Z,94.51
2016-11-18T07:46:18.369Z,93.37
2016-11-18T07:47:33.760Z,92.52
2016-11-18T07:48:50.267Z,92.42
2016-11-18T07:50:07.367Z,91.94
2016-11-18T07:51:21.906Z,91.94
2016-11-18T07:52:38.188Z,92.33
2016-11-18T07:53:55.268Z,92.42
2016-11-18T07:55:10.091Z,92.52
2016-11-18T07:56:25.324Z,92.99
2016-11-18T07:57:41.588Z,92.8
2016-11-18T07:58:56.543Z,92.71
2016-11-18T08:00:13.302Z,93.27
2016-11-18T08:01:30.019Z,93.08
2016-11-18T08:02:46.498Z,93.18
2016-11-18T08:04:02.798Z,93.75
2016-11-18T08:05:17.455Z,93.56
2016-11-18T08:06:33.982Z,93.56
2016-11-18T08:07:50.265Z,93.37
2016-11-18T08:09:04.881Z,93.37
2016-11-18T08:10:20.592Z,94.13
2016-11-18T08:11:37.843Z,94.6
2016-11-18T08:12:54.164Z,94.23
2016-11-18T08:14:10.761Z,91.33
2016-11-18T08:15:25.652Z,89.57
2016-11-18T08:16:42.066Z,89
2016-11-18T08:17:55.226Z,89.19
2016-11-18T08:19:11.936Z,89.05
2016-11-18T08:20:25.385Z,89.62
2016-11-18T08:21:39.253Z,90.47
2016-11-18T08:22:53.677Z,89.62
2016-11-18T08:24:10.549Z,88.71
2016-11-18T08:25:25.710Z,86.57
2016-11-18T08:26:42.011Z,83.53
2016-11-18T08:27:57.078Z,82.28
2016-11-18T08:29:13.627Z,80.61
2016-11-18T08:30:28.778Z,77.47
2016-11-18T08:31:43.681Z,75.6
2016-11-18T08:32:57.746Z,74.6
2016-11-18T08:34:14.895Z,73.45
2016-11-18T08:35:31.692Z,73.26
2016-11-18T08:36:48.256Z,73.93
2016-11-18T08:38:05.001Z,74.6
2016-11-18T08:39:19.623Z,73.93
2016-11-18T08:40:32.829Z,72.6
2016-11-18T08:41:49.689Z,72.44
2016-11-18T08:43:06.139Z,70.25
2016-11-18T08:44:22.886Z,69.14
2016-11-18T08:45:39.750Z,67.71
2016-11-18T08:46:54.445Z,67.55
2016-11-18T08:48:09.067Z,68.12
2016-11-18T08:49:23.651Z,67.9
2016-11-18T08:50:37.193Z,68.95
2016-11-18T08:51:52.282Z,69.04
2016-11-18T08:53:07.369Z,69.81
2016-11-18T08:54:20.922Z,70.19
2016-11-18T08:55:37.713Z,71.43
2016-11-18T08:56:51.322Z,71.01
2016-11-18T08:58:06.269Z,72.69
2016-11-18T08:59:20.900Z,73.65
2016-11-18T09:00:36.497Z,74.75
2016-11-18T09:01:53.447Z,76.08
2016-11-18T09:03:09.988Z,76.37
2016-11-18T09:04:27.114Z,75.79
2016-11-18T09:05:40.564Z,76.18
2016-11-18T09:06:53.611Z,76.75
2016-11-18T09:08:09.977Z,76.81
2016-11-18T09:09:26.425Z,76.75
2016-11-18T09:10:43.568Z,77.28
2016-11-18T09:11:58.927Z,77.37
2016-11-18T09:13:14.527Z,77.66
2016-11-18T09:14:28.097Z,78.33
2016-11-18T09:15:44.772Z,78.8
2016-11-18T09:17:01.212Z,78.99
2016-11-18T09:18:15.692Z,79.28
2016-11-18T09:19:32.300Z,77.95
2016-11-18T09:20:48.214Z,77.42
2016-11-18T09:22:05.166Z,76.18
2016-11-18T09:23:20.285Z,77.32
2016-11-18T09:24:35.924Z,77.22
2016-11-18T09:25:51.263Z,77.47
2016-11-18T09:27:06.088Z,78.04
2016-11-18T09:28:20.357Z,78.42
2016-11-18T09:29:36.593Z,79.09
2016-11-18T09:30:50.538Z,79.09
2016-11-18T09:32:07.539Z,79.57
2016-11-18T09:33:24.425Z,80.42
2016-11-18T09:34:39.632Z,80.66
2016-11-18T09:35:55.946Z,80.86
2016-11-18T09:37:11.525Z,81.62
2016-11-18T09:38:27.548Z,81.33
2016-11-18T09:39:42.751Z,82.57
2016-11-18T09:40:56.633Z,82.19
2016-11-18T09:42:11.453Z,82.67
2016-11-18T09:43:25.051Z,82.28
2016-11-18T09:44:39.456Z,82.28
2016-11-18T09:45:55.790Z,82.28
2016-11-18T09:47:12.398Z,82.57
2016-11-18T09:48:28.530Z,81.71
2016-11-18T09:49:42.934Z,81.52
2016-11-18T09:50:59.491Z,81.05
2016-11-18T09:52:14.154Z,81.24
2016-11-18T09:53:27.646Z,80.9
2016-11-18T09:54:44.290Z,79.28
2016-11-18T09:55:59.568Z,79.47
2016-11-18T09:57:16.698Z,78.99
2016-11-18T09:58:33.668Z,78.99
2016-11-18T09:59:48.256Z,76.52
2016-11-18T10:01:04.799Z,75.28
2016-11-18T10:02:20.667Z,75.38
2016-11-18T10:03:34.201Z,74.43
2016-11-18T10:04:48.720Z,74.8
2016-11-18T10:06:05.299Z,74.8
2016-11-18T10:07:21.600Z,74.24
2016-11-18T10:08:36.517Z,74.2
2016-11-18T10:09:53.050Z,71.95
2016-11-18T10:11:09.914Z,72.05
2016-11-18T10:12:25.713Z,71.57
2016-11-18T10:13:42.318Z,70.81
2016-11-18T10:14:58.737Z,70.14
2016-11-18T10:16:15.659Z,69.48
2016-11-18T10:17:29.390Z,67.57
2016-11-18T10:18:44.962Z,65.23
2016-11-18T10:19:59.313Z,63.42
2016-11-18T10:21:14.829Z,62.88
2016-11-18T10:22:30.596Z,62.49
2016-11-18T10:23:46.082Z,62.3
2016-11-18T10:25:00.815Z,60.59
2016-11-18T10:26:17.357Z,60.05
2016-11-18T10:27:33.523Z,59.86
2016-11-18T10:28:49.654Z,58.36
2016-11-18T10:30:06.368Z,58.36
2016-11-18T10:31:22.817Z,57.79
2016-11-18T10:32:39.137Z,59.19
2016-11-18T10:33:54.303Z,60.05
2016-11-18T10:35:10.504Z,60.59
2016-11-18T10:36:25.683Z,60.97
2016-11-18T10:37:42.389Z,61.54
2016-11-18T10:38:55.414Z,62.27
2016-11-18T10:40:10.318Z,62.94
2016-11-18T10:41:25.375Z,63.23
2016-11-18T10:42:40.171Z,63.42
2016-11-18T10:43:55.510Z,63.32
2016-11-18T10:45:12.215Z,62.18
2016-11-18T10:46:28.654Z,62.37
2016-11-18T10:47:44.141Z,63.04
2016-11-18T10:48:59.452Z,62.46
2016-11-18T10:50:15.352Z,63.04
2016-11-18T10:51:31.898Z,63.32
2016-11-18T10:52:46.252Z,62.88
2016-11-18T10:54:03.080Z,61.83
2016-11-18T10:55:18.247Z,61.73
2016-11-18T10:56:32.288Z,61.64
2016-11-18T10:57:47.654Z,62.21
2016-11-18T10:59:04.149Z,62.49
2016-11-18T11:00:20.448Z,63.07
2016-11-18T11:01:35.057Z,62.88
2016-11-18T11:02:50.161Z,63.17
2016-11-18T11:04:06.571Z,62.68
2016-11-18T11:05:21.788Z,63.07
2016-11-18T11:06:38.469Z,62.88
2016-11-18T11:07:55.204Z,62.49
2016-11-18T11:09:12.046Z,61.83
2016-11-18T11:10:26.807Z,62.75
2016-11-18T11:11:43.308Z,63.42
2016-11-18T11:12:59.789Z,63.99
2016-11-18T11:14:14.655Z,64.56
2016-11-18T11:15:29.226Z,64.47
2016-11-18T11:16:45.443Z,65.23
2016-11-18T11:17:59.703Z,64.94
2016-11-18T11:19:15.890Z,65.03
2016-11-18T11:20:32.430Z,65.7
2016-11-18T11:21:48.935Z,65.32
2016-11-18T11:23:05.399Z,64.75
2016-11-18T11:24:21.037Z,65.29
2016-11-18T11:25:37.889Z,64.94
2016-11-18T11:26:54.300Z,65.7
2016-11-18T11:28:07.485Z,65.7
2016-11-18T11:29:22.357Z,65.99
2016-11-18T11:30:38.483Z,65.8
2016-11-18T11:31:55.294Z,65.61
2016-11-18T11:33:11.121Z,65.89
2016-11-18T11:34:27.305Z,66.37
2016-11-18T11:35:44.147Z,66.37
2016-11-18T11:36:59.045Z,66.37
2016-11-18T11:38:12.810Z,66.85
2016-11-18T11:39:26.365Z,66.85
2016-11-18T11:40:42.856Z,66.94
2016-11-18T11:41:59.949Z,66.85
2016-11-18T11:43:15.440Z,67.13
2016-11-18T11:44:30.779Z,66.66
2016-11-18T11:45:44.033Z,67.32
2016-11-18T11:47:00.520Z,66.75
2016-11-18T11:48:14.341Z,67.22
2016-11-18T11:49:30.458Z,67.51
2016-11-18T11:50:45.937Z,67.89
2016-11-18T11:52:02.273Z,67.32
2016-11-18T11:53:17.845Z,65.89
2016-11-18T11:54:32.697Z,66.08
2016-11-18T11:55:49.740Z,65.8
2016-11-18T11:57:04.461Z,66.37
2016-11-18T11:58:19.152Z,66.08
2016-11-18T11:59:35.851Z,65.89
2016-11-18T12:00:49.368Z,66.62
2016-11-18T12:02:05.643Z,66.72
2016-11-18T12:03:22.002Z,65.95
2016-11-18T12:04:37.094Z,66.05
2016-11-18T12:05:53.854Z,66.14
2016-11-18T12:07:09.261Z,65.77
2016-11-18T12:08:25.233Z,65.29
2016-11-18T12:09:42.458Z,65.19
2016-11-18T12:10:57.277Z,64.81
2016-11-18T12:12:14.129Z,65.67
2016-11-18T12:13:30.219Z,65.19
2016-11-18T12:14:46.416Z,65.67
2016-11-18T12:16:00.835Z,65.95
2016-11-18T12:17:16.894Z,65.58
2016-11-18T12:18:31.851Z,64.72
2016-11-18T12:19:47.846Z,65
2016-11-18T12:21:04.211Z,66.33
2016-11-18T12:22:17.778Z,66.24
2016-11-18T12:23:34.467Z,65.38
2016-11-18T12:24:49.544Z,65.1
2016-11-18T12:26:04.155Z,65.1
2016-11-18T12:27:20.635Z,65
2016-11-18T12:28:35.161Z,65.19
2016-11-18T12:29:48.602Z,64.81
2016-11-18T12:31:02.430Z,65.06
2016-11-18T12:32:18.573Z,64.87
2016-11-18T12:33:33.890Z,65.54
2016-11-18T12:34:50.442Z,64.97
2016-11-18T12:36:04.777Z,65.16
2016-11-18T12:37:21.645Z,64.59
2016-11-18T12:38:36.874Z,65.83
2016-11-18T12:39:53.691Z,66.3
2016-11-18T12:41:07.279Z,65.92
2016-11-18T12:42:22.161Z,66.2
2016-11-18T12:43:37.003Z,66.02
2016-11-18T12:44:52.778Z,66.02
2016-11-18T12:46:07.695Z,66.02
2016-11-18T12:47:22.479Z,66.11
2016-11-18T12:48:34.176Z,66.11
2016-11-18T12:49:49.037Z,66.11
2016-11-18T12:51:05.591Z,65.92
2016-11-18T12:52:22.704Z,66.02
2016-11-18T12:53:38.248Z,66.2
2016-11-18T12:54:53.431Z,66.11
2016-11-18T12:56:08.047Z,66.49
2016-11-18T12:57:22.668Z,65.92
2016-11-18T12:58:37.789Z,66.2
2016-11-18T12:59:54.659Z,65.92
2016-11-18T13:01:09.490Z,66.2
2016-11-18T13:02:25.646Z,66.49
2016-11-18T13:03:42.654Z,66.49
2016-11-18T13:04:57.744Z,66.49
2016-11-18T13:06:13.939Z,66.02
2016-11-18T13:07:30.316Z,66.87
2016-11-18T13:08:46.776Z,67.44
2016-11-18T13:10:01.499Z,67.73
2016-11-18T13:11:14.715Z,67.54
2016-11-18T13:12:30.775Z,67.54
2016-11-18T13:13:46.750Z,67.63
2016-11-18T13:15:02.023Z,68.3
2016-11-18T13:16:17.922Z,68.4
2016-11-18T13:17:33.817Z,68.68
2016-11-18T13:18:49.006Z,68.96
2016-11-18T13:20:04.504Z,68.59
2016-11-18T13:21:20.311Z,68.4
2016-11-18T13:22:35.950Z,67.82
2016-11-18T13:23:50.606Z,67.54
2016-11-18T13:25:07.082Z,66.59
2016-11-18T13:26:23.112Z,67.25
2016-11-18T13:27:37.789Z,66.39
2016-11-18T13:28:54.174Z,66.2
2016-11-18T13:30:08.927Z,66.59
2016-11-18T13:31:21.187Z,66.68
2016-11-18T13:32:36.471Z,66.11
2016-11-18T13:33:53.745Z,66.39
2016-11-18T13:35:09.535Z,66.68
2016-11-18T13:36:24.384Z,66.49
2016-11-18T13:37:39.696Z,67.35
2016-11-18T13:38:56.220Z,67.25
2016-11-18T13:40:12.386Z,66.59
2016-11-18T13:41:29.281Z,66.39
2016-11-18T13:42:44.970Z,66.68
2016-11-18T13:43:58.785Z,66.68
2016-11-18T13:45:13.661Z,66.87
2016-11-18T13:46:28.492Z,67.25
2016-11-18T13:47:43.463Z,66.49
2016-11-18T13:48:58.140Z,67.35
2016-11-18T13:50:14.639Z,67.44
2016-11-18T13:51:31.228Z,67.07
2016-11-18T13:52:47.510Z,66.3
2016-11-18T13:54:03.038Z,67.25
2016-11-18T13:55:20.361Z,67.32
2016-11-18T13:56:34.868Z,67.5
2016-11-18T13:57:51.525Z,67.32
2016-11-18T13:59:08.635Z,67.69
2016-11-18T14:00:24.774Z,68.17
2016-11-18T14:01:40.703Z,68.27
2016-11-18T14:02:56.973Z,68.46
2016-11-18T14:04:13.277Z,69.41
2016-11-18T14:05:29.831Z,68.84
2016-11-18T14:06:46.761Z,69.41
2016-11-18T14:08:01.939Z,69.41
2016-11-18T14:09:18.234Z,70.17
2016-11-18T14:10:31.605Z,69.79
2016-11-18T14:11:47.921Z,69.5
2016-11-18T14:13:01.470Z,69.6
2016-11-18T14:14:15.096Z,69.88
2016-11-18T14:15:31.638Z,70.17
2016-11-18T14:16:47.373Z,70.07
2016-11-18T14:18:02.224Z,70.07
2016-11-18T14:19:18.902Z,70.83
2016-11-18T14:20:33.396Z,71.22
2016-11-18T14:21:49.039Z,72.16
2016-11-18T14:23:02.883Z,71.78
2016-11-18T14:24:17.383Z,72.07
2016-11-18T14:25:33.062Z,72.99
2016-11-18T14:26:47.721Z,73.11
2016-11-18T14:28:03.256Z,73.3
2016-11-18T14:29:20.229Z,73.49
2016-11-18T14:30:35.270Z,73.59
2016-11-18T14:31:51.806Z,73.02
2016-11-18T14:33:06.635Z,72.83
2016-11-18T14:34:19.579Z,72.35
2016-11-18T14:35:34.663Z,72.64
2016-11-18T14:36:50.914Z,72.64
2016-11-18T14:38:07.799Z,73.02
2016-11-18T14:39:21.232Z,73.3
2016-11-18T14:40:37.885Z,73.21
2016-11-18T14:41:53.324Z,73.11
2016-11-18T14:43:09.485Z,73.4
2016-11-18T14:44:25.788Z,73.59
2016-11-18T14:45:42.105Z,73.4
2016-11-18T14:46:58.898Z,73.78
2016-11-18T14:48:12.497Z,74.12
2016-11-18T14:49:29.063Z,73.93
2016-11-18T14:50:44.758Z,74.31
2016-11-18T14:51:59.535Z,73.36
2016-11-18T14:53:14.842Z,73.36
2016-11-18T14:54:30.899Z,73.65
2016-11-18T14:55:46.042Z,73.46
2016-11-18T14:57:02.475Z,73.55
2016-11-18T14:58:19.184Z,74.31
2016-11-18T14:59:35.340Z,73.93
2016-11-18T15:00:50.657Z,74.41
2016-11-18T15:02:04.112Z,74.79
2016-11-18T15:03:18.863Z,74.79
2016-11-18T15:04:35.377Z,74.88
2016-11-18T15:05:50.033Z,75.36
2016-11-18T15:07:04.555Z,74.6
2016-11-18T15:08:19.335Z,74.69
2016-11-18T15:09:35.880Z,73.93
2016-11-18T15:10:51.748Z,73.8
2016-11-18T15:12:06.340Z,74.12
2016-11-18T15:13:23.166Z,73.36
2016-11-18T15:14:39.689Z,73.46
2016-11-18T15:15:56.109Z,73.99
2016-11-18T15:17:10.544Z,73.84
2016-11-18T15:18:26.718Z,73.61
2016-11-18T15:19:43.016Z,73.71
2016-11-18T15:20:59.566Z,74.08
2016-11-18T15:22:13.995Z,73.71
2016-11-18T15:23:30.260Z,73.8
2016-11-18T15:24:46.711Z,73.99
2016-11-18T15:26:02.006Z,73.99
2016-11-18T15:27:17.428Z,74.08
2016-11-18T15:28:32.538Z,74.75
2016-11-18T15:29:46.416Z,74.56
2016-11-18T15:31:02.804Z,74.94
2016-11-18T15:32:19.570Z,74.85
2016-11-18T15:33:35.870Z,74.75
2016-11-18T15:34:52.559Z,75.04
2016-11-18T15:36:08.785Z,74.85
2016-11-18T15:37:22.186Z,75.04
2016-11-18T15:38:36.508Z,75.23
2016-11-18T15:39:52.878Z,75.32
2016-11-18T15:41:08.512Z,75.51
2016-11-18T15:42:23.585Z,75.42
2016-11-18T15:43:38.663Z,76.27
2016-11-18T15:44:55.238Z,75.99
2016-11-18T15:46:11.382Z,76.65
2016-11-18T15:47:26.466Z,76.65
2016-11-18T15:48:39.911Z,77.09
2016-11-18T15:49:56.275Z,77.09
2016-11-18T15:51:12.118Z,77.75
2016-11-18T15:52:28.815Z,77.47
2016-11-18T15:53:45.562Z,77.18
2016-11-18T15:54:58.709Z,77.37
2016-11-18T15:56:14.638Z,77.94
2016-11-18T15:57:30.858Z,77.84
2016-11-18T15:58:46.320Z,78.42
2016-11-18T16:00:03.119Z,78.61
2016-11-18T16:01:19.940Z,78.51
2016-11-18T16:02:36.112Z,78.89
2016-11-18T16:03:52.830Z,78.8
2016-11-18T16:05:07.601Z,78.99
2016-11-18T16:06:24.259Z,79.08
2016-11-18T16:07:41.232Z,78.89
2016-11-18T16:08:57.439Z,79.27
2016-11-18T16:10:13.486Z,79.08
2016-11-18T16:11:28.708Z,78.99
2016-11-18T16:12:45.610Z,78.99
2016-11-18T16:14:02.564Z,79.27
2016-11-18T16:15:17.856Z,79.36